KBGR 162153Z 21005KT 10SM FEW045 SCT080 00/M06 A2979 RMK AO2 SLP092 T00001061